sensor_id;sensor_type;location;lat;lon;timestamp;P1;durP1;ratioP1;P2;durP2;ratioP2
25913;SDS011;13718;50.922;5.346;2023-11-18T00:00:03;116.65;;;45.50;;
25913;SDS011;13718;50.922;5.346;2023-11-18T00:02:36;106.70;;;43.45;;
25913;SDS011;13718;50.922;5.346;2023-11-18T00:05:01;119.18;;;46.20;;
25913;SDS011;13718;50.922;5.346;2023-11-18T00:07:27;113.57;;;46.55;;
25913;SDS011;13718;50.922;5.346;2023-11-18T00:09:53;112.88;;;45.17;;
25913;SDS011;13718;50.922;5.346;2023-11-18T00:12:19;119.35;;;46.45;;
25913;SDS011;13718;50.922;5.346;2023-11-18T00:14:45;116.60;;;48.00;;
25913;SDS011;13718;50.922;5.346;2023-11-18T00:17:11;109.65;;;46.25;;
25913;SDS011;13718;50.922;5.346;2023-11-18T00:19:37;113.38;;;45.92;;
25913;SDS011;13718;50.922;5.346;2023-11-18T00:22:03;121.00;;;47.80;;
25913;SDS011;13718;50.922;5.346;2023-11-18T00:24:28;112.25;;;46.65;;
25913;SDS011;13718;50.922;5.346;2023-11-18T00:26:54;115.28;;;47.40;;
25913;SDS011;13718;50.922;5.346;2023-11-18T00:29:20;119.53;;;48.28;;
25913;SDS011;13718;50.922;5.346;2023-11-18T00:31:45;106.70;;;47.00;;
25913;SDS011;13718;50.922;5.346;2023-11-18T00:34:11;117.40;;;47.17;;
25913;SDS011;13718;50.922;5.346;2023-11-18T00:36:36;109.18;;;46.45;;
25913;SDS011;13718;50.922;5.346;2023-11-18T00:39:02;110.40;;;44.78;;
25913;SDS011;13718;50.922;5.346;2023-11-18T00:41:29;109.07;;;45.53;;
25913;SDS011;13718;50.922;5.346;2023-11-18T00:43:54;105.55;;;43.72;;
25913;SDS011;13718;50.922;5.346;2023-11-18T00:46:21;116.20;;;45.50;;
25913;SDS011;13718;50.922;5.346;2023-11-18T00:48:47;108.22;;;44.03;;
25913;SDS011;13718;50.922;5.346;2023-11-18T00:51:12;108.65;;;44.35;;
25913;SDS011;13718;50.922;5.346;2023-11-18T00:53:38;108.97;;;43.58;;
25913;SDS011;13718;50.922;5.346;2023-11-18T00:56:04;119.43;;;44.97;;
25913;SDS011;13718;50.922;5.346;2023-11-18T00:58:33;111.00;;;44.45;;
25913;SDS011;13718;50.922;5.346;2023-11-18T01:01:01;109.82;;;44.15;;
25913;SDS011;13718;50.922;5.346;2023-11-18T01:03:28;113.95;;;44.92;;
25913;SDS011;13718;50.922;5.346;2023-11-18T01:05:54;112.97;;;44.47;;
25913;SDS011;13718;50.922;5.346;2023-11-18T01:08:19;106.70;;;45.15;;
25913;SDS011;13718;50.922;5.346;2023-11-18T01:10:45;105.10;;;43.92;;
25913;SDS011;13718;50.922;5.346;2023-11-18T01:13:10;102.95;;;43.50;;
25913;SDS011;13718;50.922;5.346;2023-11-18T01:15:36;104.13;;;44.30;;
25913;SDS011;13718;50.922;5.346;2023-11-18T01:18:02;108.05;;;43.85;;
25913;SDS011;13718;50.922;5.346;2023-11-18T01:20:27;106.75;;;44.72;;
25913;SDS011;13718;50.922;5.346;2023-11-18T01:22:53;109.00;;;44.78;;
25913;SDS011;13718;50.922;5.346;2023-11-18T01:25:18;115.22;;;44.85;;
25913;SDS011;13718;50.922;5.346;2023-11-18T01:27:44;111.95;;;45.42;;
25913;SDS011;13718;50.922;5.346;2023-11-18T01:30:13;104.30;;;45.03;;
25913;SDS011;13718;50.922;5.346;2023-11-18T01:32:39;106.82;;;44.15;;
25913;SDS011;13718;50.922;5.346;2023-11-18T01:35:05;108.05;;;43.83;;
25913;SDS011;13718;50.922;5.346;2023-11-18T01:37:33;110.25;;;43.28;;
25913;SDS011;13718;50.922;5.346;2023-11-18T01:39:58;106.80;;;44.35;;
25913;SDS011;13718;50.922;5.346;2023-11-18T01:42:24;108.75;;;43.78;;
25913;SDS011;13718;50.922;5.346;2023-11-18T01:44:49;102.65;;;41.50;;
25913;SDS011;13718;50.922;5.346;2023-11-18T01:47:16;102.38;;;43.03;;
25913;SDS011;13718;50.922;5.346;2023-11-18T01:49:41;100.57;;;42.80;;
25913;SDS011;13718;50.922;5.346;2023-11-18T01:52:08;94.85;;;41.78;;
25913;SDS011;13718;50.922;5.346;2023-11-18T01:54:38;100.65;;;40.83;;
25913;SDS011;13718;50.922;5.346;2023-11-18T01:57:05;101.03;;;42.10;;
25913;SDS011;13718;50.922;5.346;2023-11-18T01:59:31;104.93;;;41.95;;
25913;SDS011;13718;50.922;5.346;2023-11-18T02:01:59;99.88;;;41.10;;
25913;SDS011;13718;50.922;5.346;2023-11-18T02:04:25;106.95;;;42.50;;
25913;SDS011;13718;50.922;5.346;2023-11-18T02:06:51;106.60;;;42.13;;
25913;SDS011;13718;50.922;5.346;2023-11-18T02:09:18;115.25;;;45.72;;
25913;SDS011;13718;50.922;5.346;2023-11-18T02:14:41;103.88;;;42.60;;
25913;SDS011;13718;50.922;5.346;2023-11-18T02:17:08;107.50;;;43.85;;
25913;SDS011;13718;50.922;5.346;2023-11-18T02:19:37;107.15;;;43.35;;
25913;SDS011;13718;50.922;5.346;2023-11-18T02:22:04;106.72;;;42.17;;
25913;SDS011;13718;50.922;5.346;2023-11-18T02:24:32;109.88;;;43.05;;
25913;SDS011;13718;50.922;5.346;2023-11-18T02:27:02;106.15;;;41.17;;
25913;SDS011;13718;50.922;5.346;2023-11-18T02:29:47;94.55;;;40.50;;
25913;SDS011;13718;50.922;5.346;2023-11-18T02:32:31;104.88;;;39.83;;
25913;SDS011;13718;50.922;5.346;2023-11-18T02:35:26;92.05;;;38.72;;
25913;SDS011;13718;50.922;5.346;2023-11-18T02:37:55;95.05;;;38.05;;
25913;SDS011;13718;50.922;5.346;2023-11-18T02:40:26;95.45;;;41.00;;
25913;SDS011;13718;50.922;5.346;2023-11-18T02:43:04;90.47;;;37.97;;
25913;SDS011;13718;50.922;5.346;2023-11-18T02:45:31;88.78;;;37.08;;
25913;SDS011;13718;50.922;5.346;2023-11-18T02:47:57;99.53;;;38.92;;
25913;SDS011;13718;50.922;5.346;2023-11-18T02:50:23;97.80;;;37.67;;
25913;SDS011;13718;50.922;5.346;2023-11-18T02:52:55;90.78;;;37.75;;
25913;SDS011;13718;50.922;5.346;2023-11-18T02:55:20;86.43;;;34.70;;
25913;SDS011;13718;50.922;5.346;2023-11-18T02:57:47;81.72;;;34.45;;
25913;SDS011;13718;50.922;5.346;2023-11-18T03:00:14;88.18;;;33.67;;
25913;SDS011;13718;50.922;5.346;2023-11-18T03:02:44;92.60;;;34.35;;
25913;SDS011;13718;50.922;5.346;2023-11-18T03:05:12;77.63;;;32.30;;
25913;SDS011;13718;50.922;5.346;2023-11-18T03:07:38;84.22;;;31.90;;
25913;SDS011;13718;50.922;5.346;2023-11-18T03:10:06;88.82;;;31.50;;
25913;SDS011;13718;50.922;5.346;2023-11-18T03:12:41;87.63;;;33.13;;
25913;SDS011;13718;50.922;5.346;2023-11-18T03:15:07;77.88;;;32.25;;
25913;SDS011;13718;50.922;5.346;2023-11-18T03:17:36;82.72;;;33.03;;
25913;SDS011;13718;50.922;5.346;2023-11-18T03:20:03;89.82;;;32.60;;
25913;SDS011;13718;50.922;5.346;2023-11-18T03:22:33;84.63;;;33.00;;
25913;SDS011;13718;50.922;5.346;2023-11-18T03:24:58;79.80;;;30.60;;
25913;SDS011;13718;50.922;5.346;2023-11-18T03:27:25;72.28;;;29.30;;
25913;SDS011;13718;50.922;5.346;2023-11-18T03:29:50;74.47;;;27.92;;
25913;SDS011;13718;50.922;5.346;2023-11-18T03:32:16;80.40;;;30.88;;
25913;SDS011;13718;50.922;5.346;2023-11-18T03:34:42;73.97;;;28.42;;
25913;SDS011;13718;50.922;5.346;2023-11-18T03:37:09;73.97;;;27.98;;
25913;SDS011;13718;50.922;5.346;2023-11-18T03:39:35;73.25;;;27.65;;
25913;SDS011;13718;50.922;5.346;2023-11-18T03:42:00;61.35;;;26.58;;
25913;SDS011;13718;50.922;5.346;2023-11-18T03:44:26;63.75;;;27.05;;
25913;SDS011;13718;50.922;5.346;2023-11-18T03:46:51;59.45;;;25.45;;
25913;SDS011;13718;50.922;5.346;2023-11-18T03:49:17;66.35;;;25.73;;
25913;SDS011;13718;50.922;5.346;2023-11-18T03:51:44;68.65;;;25.38;;
25913;SDS011;13718;50.922;5.346;2023-11-18T03:54:10;65.82;;;25.00;;
25913;SDS011;13718;50.922;5.346;2023-11-18T03:56:36;57.13;;;24.20;;
25913;SDS011;13718;50.922;5.346;2023-11-18T03:59:02;57.58;;;24.75;;
25913;SDS011;13718;50.922;5.346;2023-11-18T04:01:29;51.60;;;23.35;;
25913;SDS011;13718;50.922;5.346;2023-11-18T04:03:55;60.58;;;24.15;;
25913;SDS011;13718;50.922;5.346;2023-11-18T04:06:21;54.53;;;23.15;;
25913;SDS011;13718;50.922;5.346;2023-11-18T04:08:50;55.60;;;22.98;;
25913;SDS011;13718;50.922;5.346;2023-11-18T04:11:15;59.60;;;22.73;;
25913;SDS011;13718;50.922;5.346;2023-11-18T04:13:42;58.15;;;23.25;;
25913;SDS011;13718;50.922;5.346;2023-11-18T04:16:12;56.28;;;22.33;;
25913;SDS011;13718;50.922;5.346;2023-11-18T04:21:06;51.65;;;20.42;;
25913;SDS011;13718;50.922;5.346;2023-11-18T04:23:33;63.47;;;22.30;;
25913;SDS011;13718;50.922;5.346;2023-11-18T04:26:03;50.28;;;21.02;;
25913;SDS011;13718;50.922;5.346;2023-11-18T04:28:29;53.00;;;21.17;;
25913;SDS011;13718;50.922;5.346;2023-11-18T04:30:55;46.25;;;19.02;;
25913;SDS011;13718;50.922;5.346;2023-11-18T04:33:21;59.75;;;19.75;;
25913;SDS011;13718;50.922;5.346;2023-11-18T04:35:46;55.35;;;19.38;;
25913;SDS011;13718;50.922;5.346;2023-11-18T04:38:12;45.33;;;18.58;;
25913;SDS011;13718;50.922;5.346;2023-11-18T04:40:38;55.33;;;18.58;;
25913;SDS011;13718;50.922;5.346;2023-11-18T04:43:06;42.10;;;17.15;;
25913;SDS011;13718;50.922;5.346;2023-11-18T04:45:31;42.63;;;16.60;;
25913;SDS011;13718;50.922;5.346;2023-11-18T04:47:57;45.25;;;16.58;;
25913;SDS011;13718;50.922;5.346;2023-11-18T04:50:24;43.22;;;16.50;;
25913;SDS011;13718;50.922;5.346;2023-11-18T04:52:49;45.53;;;16.27;;
25913;SDS011;13718;50.922;5.346;2023-11-18T04:55:15;35.08;;;14.43;;
25913;SDS011;13718;50.922;5.346;2023-11-18T04:57:41;44.58;;;15.32;;
25913;SDS011;13718;50.922;5.346;2023-11-18T05:00:06;37.45;;;13.77;;
25913;SDS011;13718;50.922;5.346;2023-11-18T05:02:39;36.30;;;14.38;;
25913;SDS011;13718;50.922;5.346;2023-11-18T05:05:05;35.13;;;13.73;;
25913;SDS011;13718;50.922;5.346;2023-11-18T05:07:31;37.15;;;13.45;;
25913;SDS011;13718;50.922;5.346;2023-11-18T05:09:57;36.65;;;14.07;;
25913;SDS011;13718;50.922;5.346;2023-11-18T05:12:23;37.90;;;14.55;;
25913;SDS011;13718;50.922;5.346;2023-11-18T05:14:48;34.13;;;13.98;;
25913;SDS011;13718;50.922;5.346;2023-11-18T05:17:15;33.78;;;13.88;;
25913;SDS011;13718;50.922;5.346;2023-11-18T05:19:41;38.28;;;13.52;;
25913;SDS011;13718;50.922;5.346;2023-11-18T05:22:07;38.75;;;13.23;;
25913;SDS011;13718;50.922;5.346;2023-11-18T05:24:33;33.53;;;13.50;;
25913;SDS011;13718;50.922;5.346;2023-11-18T05:26:59;38.05;;;13.68;;
25913;SDS011;13718;50.922;5.346;2023-11-18T05:29:27;34.83;;;13.20;;
25913;SDS011;13718;50.922;5.346;2023-11-18T05:31:53;38.80;;;13.02;;
25913;SDS011;13718;50.922;5.346;2023-11-18T05:34:19;31.50;;;12.50;;
25913;SDS011;13718;50.922;5.346;2023-11-18T05:36:48;31.27;;;12.65;;
25913;SDS011;13718;50.922;5.346;2023-11-18T05:39:19;32.47;;;12.02;;
25913;SDS011;13718;50.922;5.346;2023-11-18T05:41:49;32.35;;;12.10;;
25913;SDS011;13718;50.922;5.346;2023-11-18T05:44:16;35.70;;;12.32;;
25913;SDS011;13718;50.922;5.346;2023-11-18T05:46:47;30.88;;;11.98;;
25913;SDS011;13718;50.922;5.346;2023-11-18T05:49:15;34.28;;;11.85;;
25913;SDS011;13718;50.922;5.346;2023-11-18T05:51:40;31.77;;;11.73;;
25913;SDS011;13718;50.922;5.346;2023-11-18T05:54:06;26.65;;;11.73;;
25913;SDS011;13718;50.922;5.346;2023-11-18T05:56:33;33.17;;;12.13;;
25913;SDS011;13718;50.922;5.346;2023-11-18T05:58:58;31.55;;;11.52;;
25913;SDS011;13718;50.922;5.346;2023-11-18T06:01:24;28.52;;;11.18;;
25913;SDS011;13718;50.922;5.346;2023-11-18T06:03:52;26.50;;;10.60;;
25913;SDS011;13718;50.922;5.346;2023-11-18T06:06:18;28.25;;;11.23;;
25913;SDS011;13718;50.922;5.346;2023-11-18T06:08:46;30.75;;;10.70;;
25913;SDS011;13718;50.922;5.346;2023-11-18T06:11:13;27.75;;;10.75;;
25913;SDS011;13718;50.922;5.346;2023-11-18T06:16:16;27.73;;;10.23;;
25913;SDS011;13718;50.922;5.346;2023-11-18T06:18:53;27.25;;;6.10;;
25913;SDS011;13718;50.922;5.346;2023-11-18T06:21:20;23.73;;;7.18;;
25913;SDS011;13718;50.922;5.346;2023-11-18T06:23:53;27.65;;;7.40;;
25913;SDS011;13718;50.922;5.346;2023-11-18T06:26:20;17.15;;;6.80;;
25913;SDS011;13718;50.922;5.346;2023-11-18T06:28:46;19.02;;;6.40;;
25913;SDS011;13718;50.922;5.346;2023-11-18T06:31:13;21.65;;;7.38;;
25913;SDS011;13718;50.922;5.346;2023-11-18T06:33:39;24.10;;;6.43;;
25913;SDS011;13718;50.922;5.346;2023-11-18T06:36:07;29.20;;;6.72;;
25913;SDS011;13718;50.922;5.346;2023-11-18T06:38:34;20.80;;;7.53;;
25913;SDS011;13718;50.922;5.346;2023-11-18T06:41:00;23.45;;;6.90;;
25913;SDS011;13718;50.922;5.346;2023-11-18T06:43:27;23.67;;;6.60;;
25913;SDS011;13718;50.922;5.346;2023-11-18T06:46:01;23.67;;;6.68;;
25913;SDS011;13718;50.922;5.346;2023-11-18T06:48:26;28.52;;;6.72;;
25913;SDS011;13718;50.922;5.346;2023-11-18T06:50:52;23.83;;;6.90;;
25913;SDS011;13718;50.922;5.346;2023-11-18T06:53:18;22.83;;;6.35;;
25913;SDS011;13718;50.922;5.346;2023-11-18T06:55:46;18.38;;;5.97;;
25913;SDS011;13718;50.922;5.346;2023-11-18T06:58:12;31.83;;;6.68;;
25913;SDS011;13718;50.922;5.346;2023-11-18T07:00:38;19.38;;;6.63;;
25913;SDS011;13718;50.922;5.346;2023-11-18T07:03:03;19.77;;;5.63;;
25913;SDS011;13718;50.922;5.346;2023-11-18T07:05:30;22.52;;;6.05;;
25913;SDS011;13718;50.922;5.346;2023-11-18T07:07:56;32.28;;;6.95;;
25913;SDS011;13718;50.922;5.346;2023-11-18T07:10:22;23.58;;;5.80;;
25913;SDS011;13718;50.922;5.346;2023-11-18T07:12:47;18.73;;;5.70;;
25913;SDS011;13718;50.922;5.346;2023-11-18T07:15:13;23.52;;;5.93;;
25913;SDS011;13718;50.922;5.346;2023-11-18T07:17:40;29.35;;;5.60;;
25913;SDS011;13718;50.922;5.346;2023-11-18T07:20:05;22.13;;;5.57;;
25913;SDS011;13718;50.922;5.346;2023-11-18T07:22:31;15.45;;;5.47;;
25913;SDS011;13718;50.922;5.346;2023-11-18T07:24:57;23.92;;;5.53;;
25913;SDS011;13718;50.922;5.346;2023-11-18T07:27:22;21.42;;;5.43;;
25913;SDS011;13718;50.922;5.346;2023-11-18T07:29:48;17.35;;;5.13;;
25913;SDS011;13718;50.922;5.346;2023-11-18T07:32:13;19.42;;;5.35;;
25913;SDS011;13718;50.922;5.346;2023-11-18T07:34:39;19.70;;;5.60;;
25913;SDS011;13718;50.922;5.346;2023-11-18T07:37:06;20.20;;;6.03;;
25913;SDS011;13718;50.922;5.346;2023-11-18T07:39:33;15.85;;;5.43;;
25913;SDS011;13718;50.922;5.346;2023-11-18T07:42:13;23.83;;;5.50;;
25913;SDS011;13718;50.922;5.346;2023-11-18T07:44:40;20.55;;;5.45;;
25913;SDS011;13718;50.922;5.346;2023-11-18T07:47:05;19.80;;;5.00;;
25913;SDS011;13718;50.922;5.346;2023-11-18T07:49:32;22.00;;;5.03;;
25913;SDS011;13718;50.922;5.346;2023-11-18T07:51:58;21.70;;;5.82;;
25913;SDS011;13718;50.922;5.346;2023-11-18T07:54:24;17.27;;;5.50;;
25913;SDS011;13718;50.922;5.346;2023-11-18T07:56:50;17.88;;;5.32;;
25913;SDS011;13718;50.922;5.346;2023-11-18T07:59:18;25.13;;;6.18;;
25913;SDS011;13718;50.922;5.346;2023-11-18T08:01:44;23.42;;;5.78;;
25913;SDS011;13718;50.922;5.346;2023-11-18T08:04:11;23.65;;;6.35;;
25913;SDS011;13718;50.922;5.346;2023-11-18T08:06:39;18.83;;;6.35;;
25913;SDS011;13718;50.922;5.346;2023-11-18T08:09:04;27.02;;;6.43;;
25913;SDS011;13718;50.922;5.346;2023-11-18T08:11:35;18.98;;;6.40;;
25913;SDS011;13718;50.922;5.346;2023-11-18T08:14:01;19.33;;;6.20;;
25913;SDS011;13718;50.922;5.346;2023-11-18T08:16:27;27.95;;;6.97;;
25913;SDS011;13718;50.922;5.346;2023-11-18T08:18:54;24.23;;;6.68;;
25913;SDS011;13718;50.922;5.346;2023-11-18T08:21:20;23.52;;;6.97;;
25913;SDS011;13718;50.922;5.346;2023-11-18T08:23:47;25.70;;;6.60;;
25913;SDS011;13718;50.922;5.346;2023-11-18T08:26:12;23.02;;;6.85;;
25913;SDS011;13718;50.922;5.346;2023-11-18T08:28:39;28.17;;;6.70;;
25913;SDS011;13718;50.922;5.346;2023-11-18T08:31:05;25.73;;;6.35;;
25913;SDS011;13718;50.922;5.346;2023-11-18T08:33:31;27.38;;;7.53;;
25913;SDS011;13718;50.922;5.346;2023-11-18T08:35:58;36.05;;;7.05;;
25913;SDS011;13718;50.922;5.346;2023-11-18T08:38:25;20.33;;;7.32;;
25913;SDS011;13718;50.922;5.346;2023-11-18T08:40:51;23.95;;;6.57;;
25913;SDS011;13718;50.922;5.346;2023-11-18T08:43:16;18.83;;;6.45;;
25913;SDS011;13718;50.922;5.346;2023-11-18T08:45:42;26.60;;;6.72;;
25913;SDS011;13718;50.922;5.346;2023-11-18T08:48:08;15.70;;;5.22;;
25913;SDS011;13718;50.922;5.346;2023-11-18T08:50:34;20.00;;;5.97;;
25913;SDS011;13718;50.922;5.346;2023-11-18T08:53:00;18.25;;;5.93;;
25913;SDS011;13718;50.922;5.346;2023-11-18T08:55:29;17.58;;;5.60;;
25913;SDS011;13718;50.922;5.346;2023-11-18T08:58:06;21.50;;;6.50;;
25913;SDS011;13718;50.922;5.346;2023-11-18T09:00:47;14.75;;;5.63;;
25913;SDS011;13718;50.922;5.346;2023-11-18T09:03:19;18.38;;;6.03;;
25913;SDS011;13718;50.922;5.346;2023-11-18T09:05:59;19.67;;;5.35;;
25913;SDS011;13718;50.922;5.346;2023-11-18T09:11:00;21.52;;;5.72;;
25913;SDS011;13718;50.922;5.346;2023-11-18T09:13:30;20.30;;;6.40;;
25913;SDS011;13718;50.922;5.346;2023-11-18T09:15:57;19.77;;;6.20;;
25913;SDS011;13718;50.922;5.346;2023-11-18T09:18:25;21.30;;;5.95;;
25913;SDS011;13718;50.922;5.346;2023-11-18T09:20:52;22.52;;;5.95;;
25913;SDS011;13718;50.922;5.346;2023-11-18T09:23:20;17.50;;;5.18;;
25913;SDS011;13718;50.922;5.346;2023-11-18T09:25:48;17.55;;;5.43;;
25913;SDS011;13718;50.922;5.346;2023-11-18T09:28:15;16.92;;;5.18;;
25913;SDS011;13718;50.922;5.346;2023-11-18T09:30:42;15.07;;;4.88;;
25913;SDS011;13718;50.922;5.346;2023-11-18T09:33:25;14.75;;;4.90;;
25913;SDS011;13718;50.922;5.346;2023-11-18T09:35:57;15.55;;;5.53;;
25913;SDS011;13718;50.922;5.346;2023-11-18T09:40:54;22.63;;;5.55;;
25913;SDS011;13718;50.922;5.346;2023-11-18T09:43:20;13.10;;;4.40;;
25913;SDS011;13718;50.922;5.346;2023-11-18T09:45:47;25.08;;;6.20;;
25913;SDS011;13718;50.922;5.346;2023-11-18T09:48:18;16.70;;;5.20;;
25913;SDS011;13718;50.922;5.346;2023-11-18T09:50:50;15.88;;;5.28;;
25913;SDS011;13718;50.922;5.346;2023-11-18T09:53:16;19.90;;;5.72;;
25913;SDS011;13718;50.922;5.346;2023-11-18T09:55:48;12.43;;;5.00;;
25913;SDS011;13718;50.922;5.346;2023-11-18T09:58:20;16.95;;;5.38;;
25913;SDS011;13718;50.922;5.346;2023-11-18T10:00:49;16.95;;;5.47;;
25913;SDS011;13718;50.922;5.346;2023-11-18T10:03:22;17.75;;;4.85;;
25913;SDS011;13718;50.922;5.346;2023-11-18T10:05:47;14.65;;;5.43;;
25913;SDS011;13718;50.922;5.346;2023-11-18T10:08:15;17.42;;;4.60;;
25913;SDS011;13718;50.922;5.346;2023-11-18T10:10:41;17.85;;;4.40;;
25913;SDS011;13718;50.922;5.346;2023-11-18T10:13:10;18.38;;;5.10;;
25913;SDS011;13718;50.922;5.346;2023-11-18T10:15:47;16.25;;;4.78;;
25913;SDS011;13718;50.922;5.346;2023-11-18T10:18:17;13.50;;;4.75;;
25913;SDS011;13718;50.922;5.346;2023-11-18T10:20:49;20.05;;;4.55;;
25913;SDS011;13718;50.922;5.346;2023-11-18T10:23:24;12.25;;;4.47;;
25913;SDS011;13718;50.922;5.346;2023-11-18T10:25:55;19.70;;;4.65;;
25913;SDS011;13718;50.922;5.346;2023-11-18T10:28:22;16.00;;;4.30;;
25913;SDS011;13718;50.922;5.346;2023-11-18T10:30:49;12.40;;;4.63;;
25913;SDS011;13718;50.922;5.346;2023-11-18T10:33:15;15.30;;;4.43;;
25913;SDS011;13718;50.922;5.346;2023-11-18T10:35:49;11.38;;;4.43;;
25913;SDS011;13718;50.922;5.346;2023-11-18T10:38:16;13.57;;;4.13;;
25913;SDS011;13718;50.922;5.346;2023-11-18T10:40:42;15.70;;;4.03;;
25913;SDS011;13718;50.922;5.346;2023-11-18T10:43:08;15.45;;;4.13;;
25913;SDS011;13718;50.922;5.346;2023-11-18T10:45:35;13.80;;;4.53;;
25913;SDS011;13718;50.922;5.346;2023-11-18T10:48:07;16.42;;;3.90;;
25913;SDS011;13718;50.922;5.346;2023-11-18T10:50:33;15.68;;;4.65;;
25913;SDS011;13718;50.922;5.346;2023-11-18T10:52:59;17.17;;;5.03;;
25913;SDS011;13718;50.922;5.346;2023-11-18T10:55:39;9.00;;;4.05;;
25913;SDS011;13718;50.922;5.346;2023-11-18T10:58:05;11.35;;;4.10;;
25913;SDS011;13718;50.922;5.346;2023-11-18T11:00:50;12.88;;;4.20;;
25913;SDS011;13718;50.922;5.346;2023-11-18T11:03:18;20.30;;;4.15;;
25913;SDS011;13718;50.922;5.346;2023-11-18T11:05:44;10.50;;;3.47;;
25913;SDS011;13718;50.922;5.346;2023-11-18T11:08:13;24.55;;;4.15;;
25913;SDS011;13718;50.922;5.346;2023-11-18T11:10:40;15.88;;;4.82;;
25913;SDS011;13718;50.922;5.346;2023-11-18T11:13:07;15.70;;;4.43;;
25913;SDS011;13718;50.922;5.346;2023-11-18T11:15:33;11.40;;;4.38;;
25913;SDS011;13718;50.922;5.346;2023-11-18T11:18:07;13.57;;;4.47;;
25913;SDS011;13718;50.922;5.346;2023-11-18T11:20:41;11.45;;;3.65;;
25913;SDS011;13718;50.922;5.346;2023-11-18T11:26:01;17.45;;;4.13;;
25913;SDS011;13718;50.922;5.346;2023-11-18T11:28:39;19.02;;;4.47;;
25913;SDS011;13718;50.922;5.346;2023-11-18T11:31:12;15.15;;;4.20;;
25913;SDS011;13718;50.922;5.346;2023-11-18T11:34:03;17.17;;;3.83;;
25913;SDS011;13718;50.922;5.346;2023-11-18T11:36:41;13.80;;;3.63;;
25913;SDS011;13718;50.922;5.346;2023-11-18T11:39:18;12.02;;;3.90;;
25913;SDS011;13718;50.922;5.346;2023-11-18T11:41:51;9.40;;;3.83;;
25913;SDS011;13718;50.922;5.346;2023-11-18T11:44:19;13.75;;;3.70;;
25913;SDS011;13718;50.922;5.346;2023-11-18T11:46:46;13.30;;;4.20;;
25913;SDS011;13718;50.922;5.346;2023-11-18T11:49:18;9.80;;;3.42;;
25913;SDS011;13718;50.922;5.346;2023-11-18T11:52:30;8.45;;;3.10;;
25913;SDS011;13718;50.922;5.346;2023-11-18T11:55:15;12.88;;;3.45;;
25913;SDS011;13718;50.922;5.346;2023-11-18T11:57:40;13.38;;;3.40;;
25913;SDS011;13718;50.922;5.346;2023-11-18T12:00:10;16.50;;;3.53;;
25913;SDS011;13718;50.922;5.346;2023-11-18T12:02:48;6.47;;;3.13;;
25913;SDS011;13718;50.922;5.346;2023-11-18T12:05:17;12.40;;;3.25;;
25913;SDS011;13718;50.922;5.346;2023-11-18T12:07:49;7.78;;;2.90;;
25913;SDS011;13718;50.922;5.346;2023-11-18T12:10:15;11.77;;;3.55;;
25913;SDS011;13718;50.922;5.346;2023-11-18T12:12:46;7.85;;;2.90;;
25913;SDS011;13718;50.922;5.346;2023-11-18T12:15:12;9.32;;;2.80;;
25913;SDS011;13718;50.922;5.346;2023-11-18T12:20:42;5.15;;;2.45;;
25913;SDS011;13718;50.922;5.346;2023-11-18T12:23:22;5.97;;;2.95;;
25913;SDS011;13718;50.922;5.346;2023-11-18T12:25:49;6.82;;;2.45;;
25913;SDS011;13718;50.922;5.346;2023-11-18T12:28:27;6.03;;;2.60;;
25913;SDS011;13718;50.922;5.346;2023-11-18T12:30:55;7.97;;;2.72;;
25913;SDS011;13718;50.922;5.346;2023-11-18T12:33:22;5.43;;;2.58;;
25913;SDS011;13718;50.922;5.346;2023-11-18T12:47:02;5.43;;;2.15;;
25913;SDS011;13718;50.922;5.346;2023-11-18T12:49:39;7.72;;;2.78;;
25913;SDS011;13718;50.922;5.346;2023-11-18T12:52:06;6.18;;;2.00;;
25913;SDS011;13718;50.922;5.346;2023-11-18T12:54:36;5.53;;;2.33;;
25913;SDS011;13718;50.922;5.346;2023-11-18T12:57:03;5.65;;;2.40;;
25913;SDS011;13718;50.922;5.346;2023-11-18T12:59:34;4.40;;;1.80;;
25913;SDS011;13718;50.922;5.346;2023-11-18T13:02:01;5.50;;;1.83;;
25913;SDS011;13718;50.922;5.346;2023-11-18T13:04:29;8.90;;;1.50;;
25913;SDS011;13718;50.922;5.346;2023-11-18T13:06:55;3.60;;;1.45;;
25913;SDS011;13718;50.922;5.346;2023-11-18T13:09:25;5.53;;;1.50;;
25913;SDS011;13718;50.922;5.346;2023-11-18T13:11:58;5.05;;;1.55;;
25913;SDS011;13718;50.922;5.346;2023-11-18T13:14:28;6.60;;;1.55;;
25913;SDS011;13718;50.922;5.346;2023-11-18T13:16:55;4.25;;;1.30;;
25913;SDS011;13718;50.922;5.346;2023-11-18T13:19:28;2.35;;;1.33;;
25913;SDS011;13718;50.922;5.346;2023-11-18T13:21:57;3.38;;;1.08;;
25913;SDS011;13718;50.922;5.346;2023-11-18T13:24:24;4.88;;;1.10;;
25913;SDS011;13718;50.922;5.346;2023-11-18T13:26:52;2.30;;;1.20;;
25913;SDS011;13718;50.922;5.346;2023-11-18T13:29:22;7.00;;;1.13;;
25913;SDS011;13718;50.922;5.346;2023-11-18T13:31:48;3.67;;;0.98;;
25913;SDS011;13718;50.922;5.346;2023-11-18T13:34:16;3.28;;;1.33;;
25913;SDS011;13718;50.922;5.346;2023-11-18T13:36:47;2.90;;;0.95;;
25913;SDS011;13718;50.922;5.346;2023-11-18T13:39:18;1.45;;;0.85;;
25913;SDS011;13718;50.922;5.346;2023-11-18T13:41:48;3.13;;;1.00;;
25913;SDS011;13718;50.922;5.346;2023-11-18T13:44:33;4.10;;;0.90;;
25913;SDS011;13718;50.922;5.346;2023-11-18T13:47:00;3.58;;;1.25;;
25913;SDS011;13718;50.922;5.346;2023-11-18T13:49:27;4.00;;;0.90;;
25913;SDS011;13718;50.922;5.346;2023-11-18T13:51:54;1.52;;;0.85;;
25913;SDS011;13718;50.922;5.346;2023-11-18T13:54:21;2.83;;;1.00;;
25913;SDS011;13718;50.922;5.346;2023-11-18T13:56:47;4.20;;;1.33;;
25913;SDS011;13718;50.922;5.346;2023-11-18T13:59:23;5.82;;;1.00;;
25913;SDS011;13718;50.922;5.346;2023-11-18T14:01:50;2.97;;;1.20;;
25913;SDS011;13718;50.922;5.346;2023-11-18T14:04:23;4.68;;;1.05;;
25913;SDS011;13718;50.922;5.346;2023-11-18T14:06:56;4.85;;;1.10;;
25913;SDS011;13718;50.922;5.346;2023-11-18T14:09:22;2.45;;;1.10;;
25913;SDS011;13718;50.922;5.346;2023-11-18T14:11:53;3.92;;;0.95;;
25913;SDS011;13718;50.922;5.346;2023-11-18T14:14:22;2.28;;;0.90;;
25913;SDS011;13718;50.922;5.346;2023-11-18T14:16:50;2.42;;;0.90;;
25913;SDS011;13718;50.922;5.346;2023-11-18T14:19:19;5.15;;;0.95;;
25913;SDS011;13718;50.922;5.346;2023-11-18T14:21:45;4.20;;;1.10;;
25913;SDS011;13718;50.922;5.346;2023-11-18T14:24:10;2.05;;;0.60;;
25913;SDS011;13718;50.922;5.346;2023-11-18T14:26:39;2.90;;;0.90;;
25913;SDS011;13718;50.922;5.346;2023-11-18T14:29:06;2.17;;;0.80;;
25913;SDS011;13718;50.922;5.346;2023-11-18T14:31:32;2.53;;;0.90;;
25913;SDS011;13718;50.922;5.346;2023-11-18T14:33:59;2.75;;;1.00;;
25913;SDS011;13718;50.922;5.346;2023-11-18T14:36:28;1.65;;;0.70;;
25913;SDS011;13718;50.922;5.346;2023-11-18T14:38:53;2.25;;;0.70;;
25913;SDS011;13718;50.922;5.346;2023-11-18T14:41:19;1.98;;;0.75;;
25913;SDS011;13718;50.922;5.346;2023-11-18T14:43:45;4.95;;;0.90;;
25913;SDS011;13718;50.922;5.346;2023-11-18T14:46:11;2.10;;;0.88;;
25913;SDS011;13718;50.922;5.346;2023-11-18T14:48:38;3.58;;;0.80;;
25913;SDS011;13718;50.922;5.346;2023-11-18T14:51:03;2.67;;;0.93;;
25913;SDS011;13718;50.922;5.346;2023-11-18T14:53:29;5.25;;;0.90;;
25913;SDS011;13718;50.922;5.346;2023-11-18T14:55:55;1.60;;;0.80;;
25913;SDS011;13718;50.922;5.346;2023-11-18T14:58:22;1.60;;;0.90;;
25913;SDS011;13718;50.922;5.346;2023-11-18T15:00:48;2.08;;;0.70;;
25913;SDS011;13718;50.922;5.346;2023-11-18T15:03:13;1.52;;;0.80;;